sensor_id;sensor_type;location;lat;lon;timestamp;P1;durP1;ratioP1;P2;durP2;ratioP2
5827;SDS011;42583;50.240;8.444;2023-04-24T00:01:38;4.88;;;3.67;;
5827;SDS011;42583;50.240;8.444;2023-04-24T00:16:39;4.15;;;3.70;;
5827;SDS011;42583;50.240;8.444;2023-04-24T00:31:39;9.20;;;5.63;;
5827;SDS011;42583;50.240;8.444;2023-04-24T00:46:40;9.73;;;5.03;;
5827;SDS011;42583;50.240;8.444;2023-04-24T01:01:42;4.45;;;2.75;;
5827;SDS011;42583;50.240;8.444;2023-04-24T01:16:44;5.85;;;2.30;;
5827;SDS011;42583;50.240;8.444;2023-04-24T01:31:45;8.85;;;2.30;;
5827;SDS011;42583;50.240;8.444;2023-04-24T01:46:45;8.10;;;2.20;;
5827;SDS011;42583;50.240;8.444;2023-04-24T02:01:46;5.18;;;2.20;;
5827;SDS011;42583;50.240;8.444;2023-04-24T02:16:47;1.67;;;1.58;;
5827;SDS011;42583;50.240;8.444;2023-04-24T02:31:47;2.90;;;2.00;;
5827;SDS011;42583;50.240;8.444;2023-04-24T02:46:48;3.05;;;1.60;;
5827;SDS011;42583;50.240;8.444;2023-04-24T03:01:48;4.18;;;1.70;;
5827;SDS011;42583;50.240;8.444;2023-04-24T03:16:49;3.22;;;1.80;;
5827;SDS011;42583;50.240;8.444;2023-04-24T03:31:50;3.67;;;2.25;;
5827;SDS011;42583;50.240;8.444;2023-04-24T03:46:50;6.43;;;2.40;;
5827;SDS011;42583;50.240;8.444;2023-04-24T04:01:51;4.93;;;2.58;;
5827;SDS011;42583;50.240;8.444;2023-04-24T04:16:52;3.17;;;2.27;;
5827;SDS011;42583;50.240;8.444;2023-04-24T04:31:52;2.90;;;2.10;;
5827;SDS011;42583;50.240;8.444;2023-04-24T04:46:53;3.67;;;2.30;;
5827;SDS011;42583;50.240;8.444;2023-04-24T05:01:56;2.67;;;1.95;;
5827;SDS011;42583;50.240;8.444;2023-04-24T05:32:56;3.90;;;2.63;;
5827;SDS011;42583;50.240;8.444;2023-04-24T05:47:57;5.20;;;2.70;;
5827;SDS011;42583;50.240;8.444;2023-04-24T06:02:59;7.32;;;3.50;;
5827;SDS011;42583;50.240;8.444;2023-04-24T06:18:00;10.30;;;5.00;;
5827;SDS011;42583;50.240;8.444;2023-04-24T06:33:00;8.98;;;5.35;;
5827;SDS011;42583;50.240;8.444;2023-04-24T06:48:01;8.30;;;4.88;;
5827;SDS011;42583;50.240;8.444;2023-04-24T07:03:02;6.53;;;3.80;;
5827;SDS011;42583;50.240;8.444;2023-04-24T07:18:05;6.97;;;3.80;;
5827;SDS011;42583;50.240;8.444;2023-04-24T07:33:06;4.53;;;3.20;;
5827;SDS011;42583;50.240;8.444;2023-04-24T07:48:07;4.07;;;2.88;;
5827;SDS011;42583;50.240;8.444;2023-04-24T08:03:08;7.45;;;3.33;;
5827;SDS011;42583;50.240;8.444;2023-04-24T08:18:09;5.25;;;2.60;;
5827;SDS011;42583;50.240;8.444;2023-04-24T08:33:11;5.40;;;2.90;;
5827;SDS011;42583;50.240;8.444;2023-04-24T08:48:12;3.35;;;2.30;;
5827;SDS011;42583;50.240;8.444;2023-04-24T09:03:14;4.00;;;2.20;;
5827;SDS011;42583;50.240;8.444;2023-04-24T09:18:16;2.92;;;2.08;;
5827;SDS011;42583;50.240;8.444;2023-04-24T09:33:17;2.20;;;1.83;;
5827;SDS011;42583;50.240;8.444;2023-04-24T09:48:37;4.47;;;2.03;;
5827;SDS011;42583;50.240;8.444;2023-04-24T10:03:40;3.85;;;2.20;;
5827;SDS011;42583;50.240;8.444;2023-04-24T10:18:42;3.08;;;2.20;;
5827;SDS011;42583;50.240;8.444;2023-04-24T10:33:43;2.00;;;1.52;;
5827;SDS011;42583;50.240;8.444;2023-04-24T10:48:53;3.20;;;2.10;;
5827;SDS011;42583;50.240;8.444;2023-04-24T11:03:58;3.28;;;1.90;;
5827;SDS011;42583;50.240;8.444;2023-04-24T11:19:03;3.08;;;1.90;;
5827;SDS011;42583;50.240;8.444;2023-04-24T11:34:09;2.88;;;2.33;;
5827;SDS011;42583;50.240;8.444;2023-04-24T11:49:10;4.05;;;2.30;;
5827;SDS011;42583;50.240;8.444;2023-04-24T12:04:12;4.32;;;2.78;;
5827;SDS011;42583;50.240;8.444;2023-04-24T12:19:23;7.95;;;2.65;;
5827;SDS011;42583;50.240;8.444;2023-04-24T12:34:24;5.63;;;3.20;;
5827;SDS011;42583;50.240;8.444;2023-04-24T12:49:25;7.75;;;3.70;;
5827;SDS011;42583;50.240;8.444;2023-04-24T13:04:26;9.88;;;4.38;;
5827;SDS011;42583;50.240;8.444;2023-04-24T13:19:27;6.75;;;3.88;;
5827;SDS011;42583;50.240;8.444;2023-04-24T13:34:28;9.02;;;4.25;;
5827;SDS011;42583;50.240;8.444;2023-04-24T13:49:28;9.10;;;5.13;;
5827;SDS011;42583;50.240;8.444;2023-04-24T14:04:29;12.73;;;4.20;;
5827;SDS011;42583;50.240;8.444;2023-04-24T14:19:30;7.18;;;3.78;;
5827;SDS011;42583;50.240;8.444;2023-04-24T14:34:30;9.18;;;3.80;;
5827;SDS011;42583;50.240;8.444;2023-04-24T14:49:31;6.35;;;3.80;;
5827;SDS011;42583;50.240;8.444;2023-04-24T15:04:31;7.15;;;3.65;;
5827;SDS011;42583;50.240;8.444;2023-04-24T15:19:32;7.18;;;3.40;;
5827;SDS011;42583;50.240;8.444;2023-04-24T15:34:32;6.90;;;3.70;;
5827;SDS011;42583;50.240;8.444;2023-04-24T15:49:34;10.77;;;3.60;;
5827;SDS011;42583;50.240;8.444;2023-04-24T16:04:34;9.77;;;3.67;;
5827;SDS011;42583;50.240;8.444;2023-04-24T16:19:35;7.25;;;3.53;;
5827;SDS011;42583;50.240;8.444;2023-04-24T16:34:36;7.05;;;3.70;;
5827;SDS011;42583;50.240;8.444;2023-04-24T16:49:36;9.20;;;3.88;;
5827;SDS011;42583;50.240;8.444;2023-04-24T17:04:39;7.72;;;3.85;;
5827;SDS011;42583;50.240;8.444;2023-04-24T17:34:55;9.60;;;5.30;;
5827;SDS011;42583;50.240;8.444;2023-04-24T17:49:56;7.25;;;3.95;;
5827;SDS011;42583;50.240;8.444;2023-04-24T18:04:56;9.60;;;3.97;;
5827;SDS011;42583;50.240;8.444;2023-04-24T18:19:57;6.95;;;3.75;;
5827;SDS011;42583;50.240;8.444;2023-04-24T18:34:58;8.10;;;3.75;;
5827;SDS011;42583;50.240;8.444;2023-04-24T18:49:58;6.72;;;3.70;;
5827;SDS011;42583;50.240;8.444;2023-04-24T19:04:59;8.30;;;5.07;;
5827;SDS011;42583;50.240;8.444;2023-04-24T19:20:00;11.38;;;5.75;;
5827;SDS011;42583;50.240;8.444;2023-04-24T19:35:00;15.23;;;7.40;;
5827;SDS011;42583;50.240;8.444;2023-04-24T19:50:01;15.05;;;7.28;;
5827;SDS011;42583;50.240;8.444;2023-04-24T20:05:01;10.60;;;5.43;;
5827;SDS011;42583;50.240;8.444;2023-04-24T20:20:06;11.43;;;5.07;;
5827;SDS011;42583;50.240;8.444;2023-04-24T20:35:07;9.07;;;4.88;;
5827;SDS011;42583;50.240;8.444;2023-04-24T20:50:08;9.52;;;5.07;;
5827;SDS011;42583;50.240;8.444;2023-04-24T21:05:09;8.75;;;4.60;;
5827;SDS011;42583;50.240;8.444;2023-04-24T21:20:10;10.65;;;5.40;;
5827;SDS011;42583;50.240;8.444;2023-04-24T21:35:13;9.13;;;5.13;;
5827;SDS011;42583;50.240;8.444;2023-04-24T21:50:14;11.63;;;5.82;;
5827;SDS011;42583;50.240;8.444;2023-04-24T22:05:14;14.43;;;6.57;;
5827;SDS011;42583;50.240;8.444;2023-04-24T22:20:16;12.80;;;6.30;;
5827;SDS011;42583;50.240;8.444;2023-04-24T22:35:17;12.18;;;6.20;;
5827;SDS011;42583;50.240;8.444;2023-04-24T22:50:19;73.53;;;7.10;;
5827;SDS011;42583;50.240;8.444;2023-04-24T23:05:19;23.05;;;5.85;;
5827;SDS011;42583;50.240;8.444;2023-04-24T23:20:24;12.93;;;6.45;;
5827;SDS011;42583;50.240;8.444;2023-04-24T23:35:45;17.10;;;7.03;;
5827;SDS011;42583;50.240;8.444;2023-04-24T23:51:22;15.23;;;7.90;;
